Pagina principale
METAR-TAF:

METAR-TAF

Aeroporti :

Pruniers

Romorantin, Francia

latitudine: 47-19N, longitudine: 001-41E, altezza: 85 m

Osservazione

Il bollettino è stato emesso 10 minuti fa, alle 02:00 UTC
Vento 3 kt da direzioni variabili
Temperature 15°C
Umidità 63%
Pressione 1022 hPa
Visibilità 10 km o più
nessuna nube inferiore a 1500 m e nessun cumulonembo

METAR: LFYR 130200Z AUTO VRB03KT CAVOK 15/08 Q1022

Ora: 04:10 (02:10 UTC)


TAF: mancante

Osservazioni e previsioni meteorologiche di più di 4000 aeroporti (messaggi METAR e TAF).

Le stazioni disponibili sono rappresentate dai dischi gialli e rossi sulla carta.

Puntare il mouse per vedere il nome della stazione.

Clicca sopra per visualizzare le osservazioni e previsioni meteorologiche.

Per cambiare la mappa : fare clic sui pulsanti verdi con una croce nera per ingrandire, il pulsante verde con un trattino per diminuire, o sulla freccia verde per le mappe adiacenti.


METAR-TAF: